Time;durP1;ratioP1;P1;durP2;ratioP2;P2;SDS_P1;SDS_P2;PMS_P1;PMS_P2;Temp;Humidity;BMP_temperature;BMP_pressure;BME280_temperature;BME280_humidity;BME280_pressure;Samples;Min_cycle;Max_cycle;Signal;HPM_P1;HPM_P2
2023/04/28 00:00:03;;;;;;;;;3.00;3.00;;;;;;;;119833;1191;25558;-75
2023/04/28 00:02:52;;;;;;;;;5.00;4.33;;;;;;;;119881;1182;25506;-75
2023/04/28 00:05:24;;;;;;;;;3.00;3.00;;;;;;;;119904;1190;25072;-75
2023/04/28 00:07:52;;;;;;;;;5.00;3.25;;;;;;;;119925;1190;24729;-76
2023/04/28 00:10:20;;;;;;;;;4.25;4.25;;;;;;;;119938;1182;25394;-76
2023/04/28 00:12:48;;;;;;;;;5.00;4.00;;;;;;;;119971;1182;25503;-76
2023/04/28 00:15:17;;;;;;;;;3.50;3.50;;;;;;;;119912;1190;25913;-76
2023/04/28 00:17:45;;;;;;;;;5.00;3.67;;;;;;;;119921;1190;25020;-75
2023/04/28 00:20:13;;;;;;;;;6.00;4.00;;;;;;;;119929;1190;24875;-76
2023/04/28 00:22:41;;;;;;;;;4.00;4.00;;;;;;;;119940;1182;25010;-75
2023/04/28 00:25:09;;;;;;;;;3.75;3.00;;;;;;;;119885;1183;24753;-75
2023/04/28 00:27:38;;;;;;;;;4.00;4.00;;;;;;;;119876;1190;25273;-75
2023/04/28 00:30:06;;;;;;;;;5.75;3.50;;;;;;;;119920;1190;25458;-75
2023/04/28 00:32:35;;;;;;;;;4.00;4.00;;;;;;;;119927;1190;25213;-76
2023/04/28 00:35:04;;;;;;;;;3.00;3.00;;;;;;;;119929;1190;25670;-76
2023/04/28 00:37:36;;;;;;;;;5.00;5.00;;;;;;;;119948;1182;25271;-76
2023/04/28 00:40:05;;;;;;;;;2.00;2.00;;;;;;;;119907;1190;25221;-75
2023/04/28 00:42:33;;;;;;;;;4.67;4.67;;;;;;;;119939;1190;24923;-75
2023/04/28 00:45:04;;;;;;;;;3.00;3.00;;;;;;;;119910;1190;25374;-76
2023/04/28 00:47:33;;;;;;;;;4.50;4.50;;;;;;;;119919;1190;25140;-76
2023/04/28 00:50:04;;;;;;;;;2.00;2.00;;;;;;;;119716;1191;24798;-75
2023/04/28 00:52:32;;;;;;;;;3.00;3.00;;;;;;;;119893;1182;25611;-75
2023/04/28 00:55:01;;;;;;;;;4.00;4.00;;;;;;;;119923;1191;25258;-76
2023/04/28 00:57:30;;;;;;;;;7.00;5.67;;;;;;;;119903;1191;24824;-76
2023/04/28 00:59:58;;;;;;;;;5.00;4.00;;;;;;;;119920;1191;25438;-76
2023/04/28 01:02:28;;;;;;;;;3.67;3.00;;;;;;;;119898;1191;25657;-77
2023/04/28 01:04:57;;;;;;;;;4.00;4.00;;;;;;;;119920;1191;25334;-75
2023/04/28 01:07:25;;;;;;;;;4.33;4.33;;;;;;;;119896;1191;25380;-75
2023/04/28 01:09:54;;;;;;;;;2.00;2.00;;;;;;;;119914;1190;25291;-75
2023/04/28 01:12:22;;;;;;;;;3.00;3.00;;;;;;;;119898;1191;25094;-75
2023/04/28 01:14:51;;;;;;;;;8.75;6.00;;;;;;;;119908;1191;24899;-75
2023/04/28 01:17:19;;;;;;;;;4.33;2.33;;;;;;;;119732;1191;24792;-71
2023/04/28 01:19:47;;;;;;;;;4.00;4.00;;;;;;;;119884;1191;25250;-74
2023/04/28 01:22:15;;;;;;;;;6.75;4.50;;;;;;;;119911;1191;24725;-74
2023/04/28 01:24:43;;;;;;;;;4.67;3.67;;;;;;;;119910;1186;25624;-74
2023/04/28 01:27:12;;;;;;;;;5.00;4.50;;;;;;;;119802;1183;25783;-75
2023/04/28 01:29:40;;;;;;;;;4.00;4.00;;;;;;;;119901;1191;25182;-74
2023/04/28 01:32:08;;;;;;;;;4.75;3.50;;;;;;;;119903;1191;25332;-75
2023/04/28 01:34:36;;;;;;;;;7.00;6.00;;;;;;;;119899;1192;25386;-73
2023/04/28 01:37:04;;;;;;;;;3.50;2.50;;;;;;;;119916;1191;25300;-73
2023/04/28 01:39:33;;;;;;;;;6.00;4.33;;;;;;;;119916;1182;25537;-73
2023/04/28 01:42:02;;;;;;;;;8.33;5.67;;;;;;;;119913;1182;25672;-74
2023/04/28 01:44:30;;;;;;;;;5.75;3.75;;;;;;;;119785;1191;25657;-73
2023/04/28 01:46:58;;;;;;;;;7.00;4.00;;;;;;;;119895;1191;25630;-73
2023/04/28 01:49:26;;;;;;;;;8.50;6.75;;;;;;;;119886;1186;25472;-73
2023/04/28 01:51:54;;;;;;;;;5.25;4.00;;;;;;;;119910;1190;25365;-74
2023/04/28 01:54:22;;;;;;;;;6.00;4.00;;;;;;;;119904;1182;25569;-74
2023/04/28 01:56:50;;;;;;;;;4.25;4.25;;;;;;;;119933;1182;25288;-74
2023/04/28 01:59:19;;;;;;;;;5.00;5.00;;;;;;;;119935;1182;25056;-74
2023/04/28 02:01:47;;;;;;;;;6.67;4.67;;;;;;;;119925;1190;25397;-74
2023/04/28 02:04:16;;;;;;;;;5.00;5.00;;;;;;;;119927;1182;25076;-74
2023/04/28 02:06:45;;;;;;;;;5.00;4.00;;;;;;;;119924;1190;25655;-74
2023/04/28 02:09:13;;;;;;;;;5.75;5.50;;;;;;;;119913;1190;25604;-71
2023/04/28 02:11:41;;;;;;;;;3.50;2.25;;;;;;;;119913;1189;25303;-74
2023/04/28 02:14:09;;;;;;;;;4.50;3.00;;;;;;;;119891;1190;25566;-74
2023/04/28 02:16:37;;;;;;;;;6.67;3.67;;;;;;;;119886;1190;24787;-73
2023/04/28 02:19:05;;;;;;;;;4.00;4.00;;;;;;;;119915;1182;24975;-74
2023/04/28 02:21:34;;;;;;;;;6.25;5.00;;;;;;;;119935;1181;25093;-74
2023/04/28 02:24:02;;;;;;;;;5.00;4.67;;;;;;;;119896;1190;25121;-74
2023/04/28 02:26:30;;;;;;;;;3.00;3.00;;;;;;;;119919;1190;25023;-75
2023/04/28 02:28:58;;;;;;;;;5.25;4.25;;;;;;;;119932;1190;25617;-74
2023/04/28 02:31:26;;;;;;;;;4.50;4.25;;;;;;;;119903;1191;25408;-73
2023/04/28 02:33:55;;;;;;;;;4.00;2.00;;;;;;;;119946;1182;24769;-74
2023/04/28 02:36:23;;;;;;;;;3.50;3.50;;;;;;;;119912;1182;24803;-74
2023/04/28 02:38:51;;;;;;;;;3.00;3.00;;;;;;;;119864;1191;25645;-74
2023/04/28 02:41:19;;;;;;;;;6.00;5.50;;;;;;;;119907;1191;25127;-74
2023/04/28 02:43:47;;;;;;;;;5.25;4.50;;;;;;;;119906;1191;25219;-74
2023/04/28 02:46:16;;;;;;;;;8.67;4.00;;;;;;;;119912;1190;24834;-74
2023/04/28 02:48:44;;;;;;;;;6.00;4.00;;;;;;;;119908;1190;25473;-73
2023/04/28 02:51:13;;;;;;;;;4.75;4.75;;;;;;;;119911;1190;24782;-73
2023/04/28 02:53:41;;;;;;;;;7.33;5.67;;;;;;;;119931;1190;25604;-73
2023/04/28 02:56:09;;;;;;;;;5.67;4.00;;;;;;;;119917;1190;24790;-72
2023/04/28 02:58:37;;;;;;;;;3.50;3.25;;;;;;;;119893;1190;25248;-74
2023/04/28 03:01:05;;;;;;;;;6.00;5.75;;;;;;;;119919;1190;25579;-74
2023/04/28 03:03:33;;;;;;;;;4.00;4.00;;;;;;;;119889;1190;24842;-74
2023/04/28 03:06:02;;;;;;;;;4.25;4.25;;;;;;;;119947;1190;25352;-74
2023/04/28 03:08:30;;;;;;;;;1.00;1.00;;;;;;;;119937;1190;25136;-74
2023/04/28 03:10:58;;;;;;;;;3.50;3.50;;;;;;;;119920;1190;25176;-73
2023/04/28 03:13:28;;;;;;;;;4.00;4.00;;;;;;;;119929;1190;24982;-74
2023/04/28 03:15:56;;;;;;;;;3.00;3.00;;;;;;;;119906;1190;24688;-73
2023/04/28 03:18:25;;;;;;;;;5.00;3.00;;;;;;;;119901;1182;26292;-73
2023/04/28 03:20:53;;;;;;;;;4.00;4.00;;;;;;;;119914;1188;25650;-74
2023/04/28 03:23:21;;;;;;;;;5.00;4.00;;;;;;;;119911;1190;25026;-71
2023/04/28 03:25:49;;;;;;;;;4.33;2.67;;;;;;;;119924;1190;25114;-73
2023/04/28 03:28:18;;;;;;;;;4.33;3.00;;;;;;;;119934;1182;25151;-74
2023/04/28 03:30:46;;;;;;;;;3.50;3.00;;;;;;;;119934;1190;25496;-73
2023/04/28 03:33:14;;;;;;;;;5.50;4.50;;;;;;;;119916;1186;24734;-73
2023/04/28 03:35:42;;;;;;;;;3.75;3.75;;;;;;;;119922;1190;25136;-73
2023/04/28 03:38:10;;;;;;;;;4.00;4.00;;;;;;;;119914;1191;25085;-73
2023/04/28 03:40:38;;;;;;;;;3.50;3.50;;;;;;;;119900;1191;25616;-73
2023/04/28 03:43:07;;;;;;;;;4.33;4.33;;;;;;;;119918;1182;25619;-73
2023/04/28 03:45:35;;;;;;;;;4.00;4.00;;;;;;;;119911;1183;25625;-73
2023/04/28 03:48:03;;;;;;;;;3.00;3.00;;;;;;;;119914;1190;25002;-73
2023/04/28 03:50:32;;;;;;;;;4.33;3.00;;;;;;;;119924;1182;24933;-74
2023/04/28 03:53:01;;;;;;;;;3.00;3.00;;;;;;;;119937;1183;24783;-74
2023/04/28 03:55:29;;;;;;;;;4.50;3.50;;;;;;;;119908;1190;25396;-74
2023/04/28 03:57:57;;;;;;;;;4.67;2.00;;;;;;;;119903;1190;24812;-73
2023/04/28 04:00:26;;;;;;;;;3.00;3.00;;;;;;;;119902;1181;24868;-73
2023/04/28 04:02:54;;;;;;;;;2.00;2.00;;;;;;;;119896;1182;25561;-73
2023/04/28 04:05:23;;;;;;;;;4.00;4.00;;;;;;;;119882;1190;25284;-74
2023/04/28 04:07:51;;;;;;;;;4.75;4.00;;;;;;;;119941;1181;24755;-74
2023/04/28 04:10:19;;;;;;;;;2.50;2.50;;;;;;;;119922;1190;25561;-74
2023/04/28 04:12:48;;;;;;;;;3.75;3.75;;;;;;;;119924;1182;24887;-74
2023/04/28 04:15:16;;;;;;;;;5.50;3.00;;;;;;;;119935;1190;26088;-74
2023/04/28 04:17:44;;;;;;;;;6.33;3.67;;;;;;;;119932;1182;25195;-73
2023/04/28 04:20:12;;;;;;;;;4.00;3.00;;;;;;;;119892;1190;25359;-73
2023/04/28 04:22:40;;;;;;;;;5.25;4.50;;;;;;;;119901;1190;25684;-73
2023/04/28 04:25:08;;;;;;;;;2.25;2.25;;;;;;;;119924;1190;25317;-72
2023/04/28 04:27:37;;;;;;;;;5.25;4.00;;;;;;;;119935;1190;25384;-75
2023/04/28 04:30:06;;;;;;;;;4.00;3.67;;;;;;;;119917;1190;25595;-75
2023/04/28 04:32:34;;;;;;;;;2.33;2.33;;;;;;;;119972;1187;25297;-73
2023/04/28 04:35:02;;;;;;;;;4.00;3.50;;;;;;;;119881;1190;25564;-73
2023/04/28 04:37:32;;;;;;;;;3.00;1.00;;;;;;;;119907;1190;25403;-70
2023/04/28 04:40:00;;;;;;;;;3.00;3.00;;;;;;;;119915;1190;25015;-67
2023/04/28 04:42:28;;;;;;;;;4.00;3.67;;;;;;;;119907;1190;25475;-69
2023/04/28 04:44:56;;;;;;;;;8.50;5.00;;;;;;;;119911;1190;24767;-75
2023/04/28 04:47:25;;;;;;;;;4.33;3.67;;;;;;;;119918;1190;24942;-74
2023/04/28 04:49:53;;;;;;;;;3.00;3.00;;;;;;;;119903;1190;25543;-73
2023/04/28 04:52:21;;;;;;;;;7.00;4.50;;;;;;;;119929;1190;25024;-77
2023/04/28 04:54:49;;;;;;;;;4.00;2.67;;;;;;;;119908;1190;24859;-75
2023/04/28 04:57:17;;;;;;;;;5.25;5.00;;;;;;;;119899;1190;26476;-77
2023/04/28 04:59:45;;;;;;;;;6.00;5.00;;;;;;;;120023;1186;24859;-73
2023/04/28 05:02:14;;;;;;;;;5.00;3.00;;;;;;;;120079;1177;26512;-78
2023/04/28 05:04:42;;;;;;;;;5.00;4.00;;;;;;;;119946;1181;25576;-74
2023/04/28 05:07:10;;;;;;;;;5.00;3.00;;;;;;;;119930;1190;25051;-80
2023/04/28 05:09:38;;;;;;;;;6.50;4.75;;;;;;;;119909;1190;25804;-72
2023/04/28 05:12:07;;;;;;;;;6.33;3.00;;;;;;;;119884;1190;25008;-79
2023/04/28 05:14:35;;;;;;;;;4.50;4.50;;;;;;;;119904;1190;25445;-77
2023/04/28 05:17:03;;;;;;;;;7.00;5.00;;;;;;;;119922;1181;24970;-78
2023/04/28 05:19:31;;;;;;;;;7.25;3.50;;;;;;;;119941;1182;24830;-74
2023/04/28 05:22:00;;;;;;;;;5.25;5.00;;;;;;;;119919;1190;25163;-75
2023/04/28 05:24:28;;;;;;;;;6.50;6.50;;;;;;;;119891;1190;25292;-77
2023/04/28 05:27:00;;;;;;;;;6.00;5.00;;;;;;;;119918;1189;24844;-81
2023/04/28 05:29:28;;;;;;;;;5.00;4.00;;;;;;;;119997;1189;24902;-84
2023/04/28 05:31:56;;;;;;;;;7.00;7.00;;;;;;;;119949;1190;25008;-82
2023/04/28 05:34:25;;;;;;;;;6.75;6.75;;;;;;;;119949;1182;24667;-74
2023/04/28 05:36:53;;;;;;;;;9.00;5.50;;;;;;;;119885;1189;24824;-77
2023/04/28 05:39:21;;;;;;;;;6.00;5.50;;;;;;;;119927;1190;25501;-73
2023/04/28 05:41:49;;;;;;;;;11.33;6.00;;;;;;;;119961;1186;25015;-77
2023/04/28 05:44:18;;;;;;;;;7.00;5.33;;;;;;;;119914;1190;25531;-77
2023/04/28 05:46:46;;;;;;;;;6.33;5.00;;;;;;;;119926;1181;25555;-71
2023/04/28 05:49:14;;;;;;;;;7.33;6.33;;;;;;;;119925;1190;25145;-65
2023/04/28 05:51:43;;;;;;;;;6.00;5.00;;;;;;;;119883;1190;24895;-69
2023/04/28 05:54:11;;;;;;;;;10.25;6.00;;;;;;;;119929;1186;25532;-67
2023/04/28 05:56:39;;;;;;;;;7.50;4.50;;;;;;;;119896;1190;24854;-68
2023/04/28 05:59:08;;;;;;;;;6.33;5.00;;;;;;;;120005;1186;25623;-68
2023/04/28 06:01:37;;;;;;;;;7.00;6.00;;;;;;;;119879;1187;24833;-68
2023/04/28 06:04:05;;;;;;;;;9.50;6.00;;;;;;;;119895;1190;24979;-67
2023/04/28 06:06:34;;;;;;;;;10.33;7.00;;;;;;;;119925;1181;25455;-67
2023/04/28 06:09:03;;;;;;;;;7.00;5.50;;;;;;;;120006;1186;26035;-69
2023/04/28 06:11:31;;;;;;;;;7.50;5.25;;;;;;;;119945;1182;24976;-67
2023/04/28 06:13:59;;;;;;;;;7.67;7.33;;;;;;;;119932;1182;24736;-68
2023/04/28 06:16:27;;;;;;;;;9.00;6.00;;;;;;;;119910;1190;24823;-67
2023/04/28 06:18:56;;;;;;;;;5.00;5.00;;;;;;;;119909;1190;24982;-67
2023/04/28 06:21:25;;;;;;;;;6.00;6.00;;;;;;;;119920;1190;24734;-69
2023/04/28 06:23:54;;;;;;;;;7.00;5.00;;;;;;;;119893;1190;24933;-68
2023/04/28 06:26:23;;;;;;;;;9.00;6.00;;;;;;;;119924;1190;24974;-71
2023/04/28 06:28:51;;;;;;;;;8.50;5.50;;;;;;;;119721;1190;25483;-71
2023/04/28 06:31:19;;;;;;;;;4.75;4.00;;;;;;;;119800;1183;25039;-69
2023/04/28 06:33:47;;;;;;;;;7.33;6.67;;;;;;;;120075;1189;25915;-71
2023/04/28 06:36:16;;;;;;;;;7.50;5.00;;;;;;;;119875;1190;25176;-71
2023/04/28 06:38:45;;;;;;;;;7.00;6.00;;;;;;;;119919;1190;25543;-69
2023/04/28 06:41:13;;;;;;;;;6.00;6.00;;;;;;;;119874;1182;25310;-62
2023/04/28 06:43:41;;;;;;;;;7.00;5.00;;;;;;;;119908;1181;24982;-63
2023/04/28 06:46:10;;;;;;;;;6.33;5.33;;;;;;;;119865;1191;25180;-73
2023/04/28 06:48:38;;;;;;;;;6.00;4.50;;;;;;;;119896;1190;25393;-76
2023/04/28 06:51:06;;;;;;;;;6.33;6.00;;;;;;;;119947;1190;25342;-69
2023/04/28 06:53:34;;;;;;;;;6.00;5.00;;;;;;;;119923;1182;25322;-66
2023/04/28 06:56:03;;;;;;;;;6.33;3.67;;;;;;;;119898;1190;25509;-67
2023/04/28 06:58:32;;;;;;;;;5.00;5.00;;;;;;;;119925;1190;25440;-65
2023/04/28 07:01:00;;;;;;;;;6.75;4.00;;;;;;;;119915;1190;24792;-66
2023/04/28 07:03:28;;;;;;;;;7.00;6.00;;;;;;;;119944;1190;25220;-66
2023/04/28 07:05:57;;;;;;;;;5.75;5.00;;;;;;;;119918;1190;24683;-63
2023/04/28 07:08:25;;;;;;;;;3.00;3.00;;;;;;;;119717;1190;25461;-69
2023/04/28 07:10:53;;;;;;;;;9.67;6.00;;;;;;;;119921;1181;24900;-65
2023/04/28 07:13:22;;;;;;;;;11.75;6.00;;;;;;;;119935;1186;25552;-64
2023/04/28 07:15:50;;;;;;;;;7.00;6.00;;;;;;;;119916;1190;25637;-66
2023/04/28 07:18:18;;;;;;;;;7.00;4.00;;;;;;;;119924;1190;25076;-62
2023/04/28 07:20:47;;;;;;;;;3.33;3.00;;;;;;;;119895;1183;25509;-64
2023/04/28 07:23:15;;;;;;;;;6.00;4.75;;;;;;;;119920;1190;25557;-61
2023/04/28 07:25:43;;;;;;;;;4.25;4.00;;;;;;;;119899;1182;25569;-60
2023/04/28 07:28:13;;;;;;;;;5.25;4.75;;;;;;;;119909;1190;25085;-60
2023/04/28 07:30:41;;;;;;;;;5.75;4.25;;;;;;;;119917;1177;25382;-62
2023/04/28 07:33:09;;;;;;;;;5.67;4.33;;;;;;;;119889;1186;24847;-65
2023/04/28 07:35:37;;;;;;;;;6.00;4.00;;;;;;;;119945;1183;25715;-64
2023/04/28 07:38:05;;;;;;;;;5.67;4.00;;;;;;;;119914;1190;25291;-62
2023/04/28 07:40:33;;;;;;;;;7.00;5.50;;;;;;;;119900;1182;25373;-63
2023/04/28 07:43:02;;;;;;;;;4.67;3.67;;;;;;;;119917;1190;25259;-64
2023/04/28 07:45:31;;;;;;;;;5.00;4.00;;;;;;;;119923;1190;24817;-69
2023/04/28 07:48:00;;;;;;;;;5.25;5.25;;;;;;;;119914;1190;25478;-64
2023/04/28 07:50:28;;;;;;;;;4.25;3.75;;;;;;;;119907;1186;24878;-63
2023/04/28 07:52:57;;;;;;;;;5.50;4.00;;;;;;;;119907;1190;25600;-65
2023/04/28 07:55:25;;;;;;;;;5.00;3.00;;;;;;;;119924;1182;25391;-64
2023/04/28 07:57:54;;;;;;;;;5.00;5.00;;;;;;;;119883;1191;24790;-70
2023/04/28 08:00:22;;;;;;;;;9.50;5.25;;;;;;;;119889;1190;25384;-67
2023/04/28 08:02:51;;;;;;;;;6.00;5.33;;;;;;;;119723;1189;24878;-68
2023/04/28 08:05:19;;;;;;;;;5.50;5.00;;;;;;;;120223;1180;25435;-63
2023/04/28 08:07:48;;;;;;;;;5.67;5.00;;;;;;;;119976;1186;24797;-61
2023/04/28 08:10:16;;;;;;;;;4.00;3.00;;;;;;;;119919;1190;25031;-66
2023/04/28 08:12:44;;;;;;;;;4.75;4.25;;;;;;;;119934;1182;25597;-62
2023/04/28 08:15:12;;;;;;;;;3.00;3.00;;;;;;;;119927;1181;25155;-62
2023/04/28 08:17:41;;;;;;;;;7.33;5.33;;;;;;;;119931;1177;25344;-62
2023/04/28 08:20:09;;;;;;;;;8.25;5.00;;;;;;;;119987;1186;24949;-64
2023/04/28 08:22:37;;;;;;;;;3.25;2.75;;;;;;;;119934;1181;25184;-64
2023/04/28 08:25:06;;;;;;;;;7.50;4.00;;;;;;;;119920;1190;24862;-60
2023/04/28 08:27:36;;;;;;;;;1.75;1.75;;;;;;;;119881;1190;26053;-65
2023/04/28 08:30:08;;;;;;;;;4.00;4.00;;;;;;;;119893;1187;25470;-65
2023/04/28 08:32:37;;;;;;;;;3.00;1.50;;;;;;;;119924;1182;25502;-77
2023/04/28 08:35:06;;;;;;;;;4.25;2.75;;;;;;;;120136;1180;25400;-75
2023/04/28 08:37:34;;;;;;;;;3.50;3.50;;;;;;;;120087;1189;25405;-79
2023/04/28 08:40:08;;;;;;;;;3.25;3.25;;;;;;;;119804;1184;25189;-73
2023/04/28 08:42:38;;;;;;;;;5.00;4.00;;;;;;;;120146;1189;25119;-66
2023/04/28 08:45:07;;;;;;;;;4.25;4.25;;;;;;;;119892;1190;25783;-81
2023/04/28 08:47:37;;;;;;;;;7.00;3.00;;;;;;;;119919;1182;25395;-80
2023/04/28 08:50:07;;;;;;;;;3.00;3.00;;;;;;;;119734;1184;24687;-69
2023/04/28 08:52:35;;;;;;;;;6.00;4.33;;;;;;;;119869;1182;25456;-65
2023/04/28 08:55:11;;;;;;;;;10.33;4.00;;;;;;;;119947;1181;25530;-64
2023/04/28 08:57:48;;;;;;;;;5.67;4.00;;;;;;;;119732;1183;24913;-62
2023/04/28 09:00:17;;;;;;;;;6.00;3.00;;;;;;;;119912;1181;25128;-64
2023/04/28 09:02:45;;;;;;;;;5.75;4.50;;;;;;;;119907;1187;25550;-62
2023/04/28 09:05:13;;;;;;;;;7.25;4.00;;;;;;;;119914;1182;24742;-68
2023/04/28 09:07:45;;;;;;;;;3.50;3.25;;;;;;;;119925;1190;25486;-63
2023/04/28 09:10:23;;;;;;;;;7.25;5.25;;;;;;;;119884;1190;25207;-64
2023/04/28 09:12:54;;;;;;;;;1.50;1.50;;;;;;;;119887;1182;24917;-67
2023/04/28 09:15:30;;;;;;;;;5.00;5.00;;;;;;;;119905;1190;25138;-64
2023/04/28 09:18:05;;;;;;;;;5.00;3.67;;;;;;;;119899;1182;25683;-66
2023/04/28 09:20:35;;;;;;;;;10.25;6.25;;;;;;;;119865;1190;25528;-65
2023/04/28 09:23:18;;;;;;;;;4.50;2.00;;;;;;;;119909;1190;25213;-65
2023/04/28 09:26:04;;;;;;;;;7.00;4.00;;;;;;;;119879;1190;25227;-65
2023/04/28 09:28:33;;;;;;;;;4.67;4.00;;;;;;;;119929;1190;25673;-65
2023/04/28 09:31:02;;;;;;;;;3.00;3.00;;;;;;;;119920;1191;25794;-65
2023/04/28 09:33:31;;;;;;;;;7.00;6.00;;;;;;;;119902;1190;25613;-65
2023/04/28 09:35:59;;;;;;;;;3.50;2.00;;;;;;;;119892;1190;25323;-65
2023/04/28 09:38:27;;;;;;;;;10.50;4.75;;;;;;;;119899;1187;24708;-65
2023/04/28 09:41:01;;;;;;;;;3.67;3.67;;;;;;;;119892;1191;24748;-65
2023/04/28 09:43:34;;;;;;;;;11.00;3.75;;;;;;;;119898;1182;25496;-66
2023/04/28 09:46:03;;;;;;;;;5.00;2.00;;;;;;;;119887;1187;25361;-65
2023/04/28 09:48:33;;;;;;;;;5.00;3.00;;;;;;;;119898;1182;25389;-65
2023/04/28 09:51:04;;;;;;;;;6.50;3.50;;;;;;;;119901;1180;26016;-65
2023/04/28 09:53:34;;;;;;;;;6.33;3.67;;;;;;;;119904;1182;24853;-65
2023/04/28 09:56:06;;;;;;;;;5.00;3.25;;;;;;;;119916;1186;25507;-65
2023/04/28 09:58:39;;;;;;;;;4.50;4.50;;;;;;;;119906;1190;24857;-65
2023/04/28 10:01:10;;;;;;;;;7.50;5.50;;;;;;;;119903;1182;25049;-65
2023/04/28 10:03:41;;;;;;;;;6.00;3.00;;;;;;;;119905;1191;25539;-65
2023/04/28 10:06:10;;;;;;;;;5.50;5.00;;;;;;;;119943;1181;24835;-65
2023/04/28 10:08:39;;;;;;;;;5.25;4.50;;;;;;;;119894;1190;24728;-65
2023/04/28 10:11:07;;;;;;;;;5.50;2.25;;;;;;;;119933;1190;25297;-65
2023/04/28 10:13:36;;;;;;;;;6.50;3.50;;;;;;;;119915;1191;24859;-65
2023/04/28 10:16:05;;;;;;;;;6.00;4.00;;;;;;;;119904;1190;25501;-66
2023/04/28 10:18:34;;;;;;;;;11.75;7.75;;;;;;;;119887;1183;25083;-66
2023/04/28 10:21:03;;;;;;;;;4.25;3.50;;;;;;;;119702;1190;25275;-66
2023/04/28 10:23:51;;;;;;;;;6.25;2.25;;;;;;;;119931;1190;25446;-66
2023/04/28 10:26:20;;;;;;;;;8.00;5.33;;;;;;;;119823;1190;24972;-65
2023/04/28 10:28:50;;;;;;;;;6.00;4.50;;;;;;;;119888;1182;25000;-65
2023/04/28 10:31:20;;;;;;;;;7.33;4.00;;;;;;;;119897;1182;25499;-66
2023/04/28 10:33:49;;;;;;;;;6.67;4.00;;;;;;;;119909;1182;25415;-65
2023/04/28 10:36:53;;;;;;;;;4.75;3.75;;;;;;;;119740;1190;25668;-66
2023/04/28 10:39:22;;;;;;;;;5.50;4.00;;;;;;;;119929;1181;24924;-65
2023/04/28 10:41:50;;;;;;;;;5.33;5.00;;;;;;;;119929;1190;25125;-65
2023/04/28 10:44:27;;;;;;;;;2.50;1.00;;;;;;;;119875;1191;25380;-65
2023/04/28 10:47:06;;;;;;;;;6.50;5.50;;;;;;;;119923;1186;25449;-65
2023/04/28 10:49:53;;;;;;;;;7.75;2.25;;;;;;;;119924;1191;25162;-65
2023/04/28 10:52:37;;;;;;;;;5.67;3.67;;;;;;;;119920;1190;24727;-65
2023/04/28 10:55:38;;;;;;;;;8.00;4.00;;;;;;;;119930;1191;25332;-65
2023/04/28 10:58:18;;;;;;;;;8.00;5.50;;;;;;;;119951;1181;25698;-65
2023/04/28 11:00:47;;;;;;;;;5.75;5.75;;;;;;;;119915;1190;25393;-65
2023/04/28 11:03:46;;;;;;;;;7.33;4.33;;;;;;;;119919;1182;25847;-65
2023/04/28 11:06:34;;;;;;;;;9.00;4.00;;;;;;;;119928;1181;25157;-66
2023/04/28 11:09:31;;;;;;;;;10.25;4.00;;;;;;;;119939;1190;25265;-65
2023/04/28 11:12:00;;;;;;;;;7.75;5.25;;;;;;;;119928;1181;25333;-65
2023/04/28 11:14:28;;;;;;;;;5.67;5.00;;;;;;;;119905;1190;24846;-65
2023/04/28 11:16:58;;;;;;;;;7.50;4.50;;;;;;;;119909;1181;25440;-65
2023/04/28 11:19:36;;;;;;;;;8.00;4.75;;;;;;;;119725;1190;25548;-65
2023/04/28 11:22:12;;;;;;;;;5.00;4.50;;;;;;;;119878;1190;24779;-65
2023/04/28 11:24:41;;;;;;;;;6.00;4.00;;;;;;;;119912;1190;25229;-65
2023/04/28 11:27:09;;;;;;;;;4.00;4.00;;;;;;;;119740;1190;25182;-65
2023/04/28 11:29:39;;;;;;;;;6.50;4.75;;;;;;;;119939;1186;24987;-64
2023/04/28 11:32:09;;;;;;;;;9.75;4.75;;;;;;;;119937;1190;24834;-66
2023/04/28 11:34:37;;;;;;;;;7.00;3.00;;;;;;;;119870;1190;25099;-65
2023/04/28 11:37:07;;;;;;;;;5.33;5.33;;;;;;;;119955;1177;25404;-65
2023/04/28 11:39:36;;;;;;;;;6.00;5.33;;;;;;;;119935;1190;24864;-65
2023/04/28 11:42:10;;;;;;;;;9.50;5.00;;;;;;;;119923;1182;25157;-65
2023/04/28 11:44:38;;;;;;;;;5.00;2.00;;;;;;;;119890;1187;24939;-65
2023/04/28 11:47:07;;;;;;;;;5.50;5.25;;;;;;;;119953;1181;26459;-65
2023/04/28 11:49:38;;;;;;;;;6.25;4.00;;;;;;;;119928;1182;25156;-65
2023/04/28 11:52:07;;;;;;;;;6.33;6.33;;;;;;;;119871;1182;24835;-65
2023/04/28 11:54:36;;;;;;;;;7.33;6.00;;;;;;;;119944;1190;25526;-65
2023/04/28 11:57:05;;;;;;;;;5.75;5.75;;;;;;;;119892;1190;24729;-65
2023/04/28 11:59:34;;;;;;;;;4.25;4.25;;;;;;;;119876;1190;25509;-65
2023/04/28 12:02:06;;;;;;;;;6.00;5.00;;;;;;;;119935;1183;25075;-65
2023/04/28 12:04:39;;;;;;;;;5.33;4.00;;;;;;;;119923;1190;26075;-65
2023/04/28 12:07:16;;;;;;;;;5.50;4.00;;;;;;;;119891;1182;25100;-65
2023/04/28 12:10:08;;;;;;;;;6.67;5.00;;;;;;;;119882;1190;25698;-65
2023/04/28 12:12:37;;;;;;;;;5.00;3.67;;;;;;;;119914;1190;25591;-65
2023/04/28 12:15:19;;;;;;;;;6.33;5.33;;;;;;;;119917;1190;25370;-65
2023/04/28 12:17:49;;;;;;;;;5.00;5.00;;;;;;;;119736;1190;25661;-65
2023/04/28 12:20:39;;;;;;;;;4.50;4.50;;;;;;;;119914;1190;25174;-65
2023/04/28 12:23:08;;;;;;;;;7.00;4.00;;;;;;;;119915;1190;25349;-65
2023/04/28 12:25:47;;;;;;;;;5.75;4.50;;;;;;;;119895;1190;25712;-65
2023/04/28 12:28:15;;;;;;;;;7.25;4.25;;;;;;;;119928;1181;25641;-65
2023/04/28 12:30:43;;;;;;;;;6.50;6.00;;;;;;;;119892;1182;25582;-65
2023/04/28 12:33:26;;;;;;;;;6.25;4.25;;;;;;;;119883;1190;24848;-66
2023/04/28 12:35:58;;;;;;;;;3.33;3.33;;;;;;;;119754;1184;25633;-65
2023/04/28 12:38:27;;;;;;;;;5.50;4.50;;;;;;;;119899;1190;25351;-64
2023/04/28 12:40:56;;;;;;;;;6.00;3.00;;;;;;;;119889;1190;25127;-65
2023/04/28 12:43:25;;;;;;;;;3.67;3.67;;;;;;;;119869;1190;25460;-65
2023/04/28 12:45:55;;;;;;;;;9.50;6.00;;;;;;;;119905;1190;25543;-65
2023/04/28 12:48:23;;;;;;;;;2.50;2.50;;;;;;;;119924;1190;25377;-65
2023/04/28 12:50:52;;;;;;;;;7.25;5.00;;;;;;;;119944;1182;24989;-65
2023/04/28 12:53:20;;;;;;;;;5.00;4.00;;;;;;;;119930;1190;24883;-64
2023/04/28 12:55:48;;;;;;;;;5.75;5.00;;;;;;;;119914;1190;24856;-65
2023/04/28 12:58:17;;;;;;;;;4.50;4.50;;;;;;;;119923;1190;24904;-65
2023/04/28 13:00:45;;;;;;;;;8.50;4.75;;;;;;;;119913;1190;25538;-65
2023/04/28 13:03:14;;;;;;;;;6.67;5.00;;;;;;;;119932;1190;24788;-65
2023/04/28 13:05:43;;;;;;;;;7.33;6.33;;;;;;;;119915;1190;25575;-64
2023/04/28 13:08:12;;;;;;;;;6.00;5.00;;;;;;;;119911;1190;25120;-64
2023/04/28 13:10:41;;;;;;;;;6.00;6.00;;;;;;;;119926;1190;25584;-64
2023/04/28 13:13:09;;;;;;;;;8.25;4.50;;;;;;;;119913;1190;25729;-64
2023/04/28 13:15:38;;;;;;;;;6.00;4.00;;;;;;;;119901;1190;24993;-64
2023/04/28 13:18:06;;;;;;;;;7.00;4.50;;;;;;;;119933;1182;25352;-65
2023/04/28 13:20:35;;;;;;;;;6.50;5.75;;;;;;;;119934;1183;24692;-64
2023/04/28 13:23:03;;;;;;;;;6.33;4.33;;;;;;;;119906;1190;24791;-64
2023/04/28 13:25:31;;;;;;;;;7.67;6.00;;;;;;;;119943;1181;25660;-65
2023/04/28 13:27:59;;;;;;;;;8.75;4.75;;;;;;;;119906;1190;25576;-64
2023/04/28 13:30:28;;;;;;;;;6.50;5.50;;;;;;;;119897;1190;25072;-65
2023/04/28 13:32:56;;;;;;;;;6.67;5.33;;;;;;;;119911;1190;25906;-65
2023/04/28 13:35:25;;;;;;;;;6.25;5.00;;;;;;;;119941;1190;25094;-64
2023/04/28 13:38:00;;;;;;;;;7.00;5.00;;;;;;;;119890;1182;25121;-65
2023/04/28 13:40:29;;;;;;;;;4.00;4.00;;;;;;;;119917;1190;25510;-65
2023/04/28 13:42:57;;;;;;;;;8.00;4.33;;;;;;;;119888;1187;24759;-65
2023/04/28 13:45:26;;;;;;;;;6.00;4.25;;;;;;;;119928;1190;25175;-64
2023/04/28 13:47:54;;;;;;;;;5.33;4.67;;;;;;;;119910;1190;25074;-65
2023/04/28 13:50:22;;;;;;;;;5.33;4.33;;;;;;;;119901;1186;24813;-65
2023/04/28 13:52:50;;;;;;;;;7.00;5.00;;;;;;;;119915;1190;25230;-65
2023/04/28 13:55:26;;;;;;;;;7.00;4.00;;;;;;;;119934;1190;24976;-65
2023/04/28 13:57:55;;;;;;;;;4.33;3.67;;;;;;;;119934;1182;25555;-64
2023/04/28 14:00:23;;;;;;;;;6.50;5.00;;;;;;;;119915;1190;25321;-65
2023/04/28 14:02:51;;;;;;;;;8.25;7.50;;;;;;;;119878;1190;24819;-61
2023/04/28 14:05:21;;;;;;;;;4.25;4.25;;;;;;;;119729;1179;24900;-60
2023/04/28 14:07:49;;;;;;;;;5.67;3.67;;;;;;;;119876;1186;24890;-65
2023/04/28 14:10:17;;;;;;;;;4.25;3.25;;;;;;;;119915;1183;25298;-64
2023/04/28 14:12:45;;;;;;;;;9.00;7.00;;;;;;;;119905;1190;25590;-63
2023/04/28 14:15:15;;;;;;;;;7.00;5.00;;;;;;;;119756;1191;25339;-62
2023/04/28 14:17:44;;;;;;;;;6.33;6.00;;;;;;;;119933;1183;25189;-65
2023/04/28 14:20:13;;;;;;;;;7.67;5.00;;;;;;;;119918;1190;25283;-68
2023/04/28 14:22:41;;;;;;;;;5.00;4.25;;;;;;;;119866;1182;25879;-64
2023/04/28 14:25:10;;;;;;;;;5.33;5.33;;;;;;;;119957;1180;25043;-63
2023/04/28 14:27:38;;;;;;;;;6.50;5.75;;;;;;;;119896;1182;25565;-65
2023/04/28 14:30:07;;;;;;;;;5.50;5.00;;;;;;;;119915;1182;24824;-65
2023/04/28 14:32:37;;;;;;;;;5.00;5.00;;;;;;;;119991;1189;25340;-64
2023/04/28 14:35:07;;;;;;;;;7.50;6.50;;;;;;;;119890;1189;25533;-64
2023/04/28 14:37:35;;;;;;;;;16.50;9.00;;;;;;;;119894;1190;24780;-71
2023/04/28 14:40:04;;;;;;;;;7.00;7.00;;;;;;;;119881;1189;25243;-63
2023/04/28 14:42:35;;;;;;;;;13.67;8.33;;;;;;;;119866;1191;25586;-65